createdAt,value
2018-12-24T00:03:24.380Z,76.03
2018-12-24T00:05:50.372Z,75.93
2018-12-24T00:08:16.431Z,76.01
2018-12-24T00:10:42.429Z,76.08
2018-12-24T00:13:08.458Z,76.61
2018-12-24T00:15:34.504Z,76.32
2018-12-24T00:18:00.635Z,76.12
2018-12-24T00:20:26.672Z,76.01
2018-12-24T00:22:52.663Z,76.52
2018-12-24T00:25:18.705Z,76.68
2018-12-24T00:27:44.711Z,77.25
2018-12-24T00:30:10.759Z,76.75
2018-12-24T00:32:36.768Z,77.16
2018-12-24T00:37:56.767Z,76.87
2018-12-24T00:40:22.804Z,77.01
2018-12-24T00:42:48.826Z,76.65
2018-12-24T00:45:14.858Z,76.90
2018-12-24T00:48:00.822Z,76.91
2018-12-24T00:50:26.892Z,76.92
2018-12-24T00:52:52.923Z,76.37
2018-12-24T00:55:18.922Z,76.75
2018-12-24T00:57:44.952Z,77.25
2018-12-24T01:00:10.948Z,76.63
2018-12-24T01:02:36.992Z,76.89
2018-12-24T01:05:03.030Z,76.51
2018-12-24T01:07:29.027Z,76.57
2018-12-24T01:09:55.079Z,77.29
2018-12-24T01:12:24.664Z,77.19
2018-12-24T01:14:49.044Z,77.21
2018-12-24T01:17:15.138Z,77.36
2018-12-24T01:19:41.135Z,77.46
2018-12-24T01:22:07.142Z,77.47
2018-12-24T01:24:33.188Z,77.15
2018-12-24T01:26:59.175Z,77.44
2018-12-24T01:29:25.197Z,78.04
2018-12-24T01:31:51.203Z,78.05
2018-12-24T01:34:17.224Z,77.85
2018-12-24T01:36:43.216Z,77.56
2018-12-24T01:39:09.246Z,77.20
2018-12-24T01:41:35.250Z,77.02
2018-12-24T01:44:01.293Z,77.05
2018-12-24T01:46:27.359Z,76.71
2018-12-24T01:48:53.361Z,77.18
2018-12-24T01:51:19.401Z,77.29
2018-12-24T01:53:45.396Z,77.48
2018-12-24T01:56:11.419Z,77.79
2018-12-24T01:58:37.450Z,77.95
2018-12-24T02:01:03.436Z,78.05
2018-12-24T02:03:29.457Z,78.14
2018-12-24T02:05:55.447Z,77.95
2018-12-24T02:08:21.508Z,77.88
2018-12-24T02:10:47.488Z,77.99
2018-12-24T02:13:13.517Z,78.00
2018-12-24T02:15:39.556Z,77.99
2018-12-24T02:18:05.609Z,77.77
2018-12-24T02:20:31.659Z,77.42
2018-12-24T02:22:57.665Z,77.60
2018-12-24T02:25:23.722Z,77.31
2018-12-24T02:27:49.711Z,77.61
2018-12-24T02:30:15.756Z,77.33
2018-12-24T02:32:41.757Z,77.45
2018-12-24T02:35:07.799Z,77.29
2018-12-24T02:37:33.813Z,77.25
2018-12-24T02:39:59.845Z,77.30
2018-12-24T02:42:25.861Z,76.85
2018-12-24T02:44:51.888Z,77.01
2018-12-24T02:47:17.955Z,77.21
2018-12-24T02:49:43.951Z,76.96
2018-12-24T02:52:10.024Z,77.00
2018-12-24T02:54:36.040Z,76.50
2018-12-24T02:57:02.029Z,76.88
2018-12-24T02:59:28.069Z,76.90
2018-12-24T03:01:54.067Z,76.92
2018-12-24T03:04:20.062Z,76.71
2018-12-24T03:06:46.097Z,76.52
2018-12-24T03:09:12.106Z,77.15
2018-12-24T03:11:38.162Z,77.02
2018-12-24T03:14:04.195Z,77.04
2018-12-24T03:16:30.247Z,76.67
2018-12-24T03:18:56.241Z,76.29
2018-12-24T03:21:22.319Z,76.70
2018-12-24T03:23:48.330Z,76.53
2018-12-24T03:26:14.325Z,76.72
2018-12-24T03:28:40.365Z,77.01
2018-12-24T03:31:06.386Z,77.48
2018-12-24T03:33:32.481Z,77.43
2018-12-24T03:35:58.498Z,78.23
2018-12-24T03:38:24.532Z,77.97
2018-12-24T03:40:50.515Z,77.89
2018-12-24T03:43:16.544Z,77.56
2018-12-24T03:45:42.574Z,76.64
2018-12-24T03:48:08.594Z,76.41
2018-12-24T03:50:34.647Z,75.88
2018-12-24T03:53:00.661Z,76.05
2018-12-24T03:55:26.654Z,75.16
2018-12-24T03:57:52.702Z,75.18
2018-12-24T04:00:18.737Z,75.96
2018-12-24T04:02:44.729Z,75.79
2018-12-24T04:05:10.749Z,75.29
2018-12-24T04:07:36.775Z,75.36
2018-12-24T04:10:44.413Z,75.38
2018-12-24T04:13:10.505Z,74.76
2018-12-24T04:15:36.610Z,74.97
2018-12-24T04:18:02.600Z,75.02
2018-12-24T04:20:28.628Z,75.40
2018-12-24T04:22:54.644Z,75.33
2018-12-24T04:25:20.671Z,74.45
2018-12-24T04:27:46.668Z,74.50
2018-12-24T04:30:12.714Z,74.62
2018-12-24T04:32:38.716Z,75.25
2018-12-24T04:35:04.777Z,74.80
2018-12-24T04:37:30.752Z,75.00
2018-12-24T04:39:56.788Z,74.81
2018-12-24T04:42:22.764Z,75.23
2018-12-24T04:44:48.832Z,75.75
2018-12-24T04:47:14.852Z,75.33
2018-12-24T04:49:40.853Z,75.83
2018-12-24T04:52:06.873Z,75.98
2018-12-24T04:54:32.880Z,75.70
2018-12-24T04:56:58.909Z,75.69
2018-12-24T05:02:10.724Z,74.82
2018-12-24T05:04:36.720Z,74.45
2018-12-24T05:07:02.742Z,75.02
2018-12-24T05:09:28.742Z,74.66
2018-12-24T05:11:54.785Z,75.20
2018-12-24T05:14:20.819Z,75.18
2018-12-24T05:16:46.823Z,74.14
2018-12-24T05:19:12.853Z,74.51
2018-12-24T05:21:38.847Z,74.96
2018-12-24T05:24:04.881Z,74.61
2018-12-24T05:26:30.913Z,74.79
2018-12-24T05:28:56.958Z,75.06
2018-12-24T05:31:22.990Z,74.29
2018-12-24T05:33:48.972Z,74.74
2018-12-24T05:36:15.011Z,74.35
2018-12-24T05:38:40.993Z,73.77
2018-12-24T05:41:07.034Z,73.71
2018-12-24T05:43:33.052Z,73.69
2018-12-24T05:45:59.076Z,73.25
2018-12-24T05:48:25.107Z,73.43
2018-12-24T05:50:51.103Z,72.85
2018-12-24T05:53:17.140Z,73.13
2018-12-24T05:55:43.158Z,72.63
2018-12-24T05:58:09.201Z,73.59
2018-12-24T06:00:35.193Z,73.06
2018-12-24T06:03:01.235Z,72.56
2018-12-24T06:05:27.236Z,72.73
2018-12-24T06:07:53.259Z,73.32
2018-12-24T06:10:19.275Z,73.06
2018-12-24T06:12:45.287Z,73.53
2018-12-24T06:15:11.329Z,73.70
2018-12-24T06:17:37.314Z,73.69
2018-12-24T06:20:44.987Z,73.83
2018-12-24T06:23:11.023Z,73.89
2018-12-24T06:25:37.049Z,73.14
2018-12-24T06:28:03.075Z,74.02
2018-12-24T06:30:29.115Z,73.66
2018-12-24T06:32:55.110Z,73.83
2018-12-24T06:35:21.160Z,73.81
2018-12-24T06:37:47.152Z,74.48
2018-12-24T06:40:13.194Z,74.81
2018-12-24T06:42:39.301Z,74.42
2018-12-24T06:45:05.409Z,74.46
2018-12-24T06:47:31.433Z,74.10
2018-12-24T06:49:57.428Z,73.66
2018-12-24T06:52:23.562Z,73.99
2018-12-24T06:55:09.506Z,73.56
2018-12-24T06:57:56.051Z,73.03
2018-12-24T07:00:22.085Z,72.35
2018-12-24T07:02:48.102Z,71.95
2018-12-24T07:05:14.110Z,71.74
2018-12-24T07:07:40.139Z,71.96
2018-12-24T07:10:06.180Z,71.86
2018-12-24T07:12:32.229Z,72.04
2018-12-24T07:14:58.228Z,70.86
2018-12-24T07:17:24.269Z,71.09
2018-12-24T07:19:50.281Z,71.48
2018-12-24T07:22:16.326Z,71.06
2018-12-24T07:29:46.189Z,71.98
2018-12-24T07:32:12.191Z,72.08
2018-12-24T07:34:38.222Z,72.60
2018-12-24T07:39:51.655Z,72.25
2018-12-24T07:42:17.637Z,71.95
2018-12-24T07:44:43.689Z,72.08
2018-12-24T07:47:09.683Z,71.32
2018-12-24T07:49:35.711Z,71.65
2018-12-24T07:52:01.708Z,71.91
2018-12-24T07:54:27.742Z,71.77
2018-12-24T07:56:53.764Z,71.61
2018-12-24T07:59:19.766Z,72.16
2018-12-24T08:01:45.812Z,71.92
2018-12-24T08:04:31.766Z,71.45
2018-12-24T08:06:57.811Z,71.42
2018-12-24T08:09:23.810Z,71.51
2018-12-24T08:11:49.854Z,72.00
2018-12-24T08:14:15.856Z,71.98
2018-12-24T08:16:41.852Z,72.07
2018-12-24T08:19:07.885Z,71.28
2018-12-24T08:21:33.878Z,71.78
2018-12-24T08:23:59.934Z,72.02
2018-12-24T08:26:25.922Z,72.09
2018-12-24T08:28:51.992Z,71.88
2018-12-24T08:31:18.010Z,71.91
2018-12-24T08:33:44.004Z,71.81
2018-12-24T08:36:10.036Z,72.32
2018-12-24T08:38:36.035Z,72.30
2018-12-24T08:41:02.074Z,71.94
2018-12-24T08:43:28.050Z,72.14
2018-12-24T08:45:54.086Z,72.30
2018-12-24T08:48:20.109Z,72.53
2018-12-24T08:50:46.149Z,72.16
2018-12-24T08:53:12.169Z,72.19
2018-12-24T08:55:38.172Z,72.71
2018-12-24T08:58:04.191Z,72.71
2018-12-24T09:00:30.189Z,73.14
2018-12-24T09:02:56.216Z,72.50
2018-12-24T09:05:22.253Z,72.50
2018-12-24T09:07:48.280Z,72.40
2018-12-24T09:10:14.263Z,72.38
2018-12-24T09:12:40.294Z,72.01
2018-12-24T09:15:47.898Z,72.30
2018-12-24T09:18:13.977Z,73.37
2018-12-24T09:20:39.972Z,73.26
2018-12-24T09:23:06.031Z,72.98
2018-12-24T09:25:32.052Z,72.83
2018-12-24T09:27:58.043Z,73.33
2018-12-24T09:30:24.108Z,74.32
2018-12-24T09:32:50.088Z,74.36
2018-12-24T09:35:16.150Z,73.92
2018-12-24T09:37:42.141Z,73.60
2018-12-24T09:40:49.805Z,74.07
2018-12-24T09:43:15.849Z,74.49
2018-12-24T09:45:41.875Z,74.31
2018-12-24T09:48:07.907Z,73.42
2018-12-24T09:50:33.907Z,73.20
2018-12-24T09:52:59.950Z,72.77
2018-12-24T09:55:25.946Z,73.27
2018-12-24T09:57:51.982Z,72.93
2018-12-24T10:00:17.974Z,73.54
2018-12-24T10:03:25.642Z,73.13
2018-12-24T10:12:06.239Z,73.93
2018-12-24T10:14:32.267Z,73.57
2018-12-24T10:16:58.266Z,73.80
2018-12-24T10:19:24.303Z,73.01
2018-12-24T10:21:50.297Z,72.95
2018-12-24T10:24:16.302Z,73.08
2018-12-24T10:26:42.340Z,71.79
2018-12-24T10:29:08.330Z,72.44
2018-12-24T10:31:34.379Z,72.37
2018-12-24T10:34:00.374Z,71.06
2018-12-24T10:36:26.413Z,70.86
2018-12-24T10:38:52.410Z,71.58
2018-12-24T10:41:18.437Z,71.60
2018-12-24T10:43:44.429Z,70.26
2018-12-24T10:46:10.468Z,70.40
2018-12-24T10:48:36.500Z,70.13
2018-12-24T10:51:02.541Z,69.67
2018-12-24T10:53:28.533Z,69.71
2018-12-24T10:55:54.575Z,69.31
2018-12-24T10:58:20.622Z,69.51
2018-12-24T11:00:46.672Z,68.83
2018-12-24T11:03:12.677Z,68.13
2018-12-24T11:05:38.678Z,67.25
2018-12-24T11:08:04.739Z,68.11
2018-12-24T11:10:30.757Z,67.59
2018-12-24T11:12:56.762Z,67.72
2018-12-24T11:15:25.246Z,66.54
2018-12-24T11:17:50.737Z,67.11
2018-12-24T11:20:16.777Z,67.90
2018-12-24T11:22:42.779Z,67.48
2018-12-24T11:25:08.817Z,68.19
2018-12-24T11:27:34.959Z,65.83
2018-12-24T11:30:01.080Z,68.26
2018-12-24T11:32:27.061Z,67.55
2018-12-24T11:37:25.585Z,67.64
2018-12-24T11:39:51.625Z,66.97
2018-12-24T11:42:17.617Z,67.14
2018-12-24T11:44:43.647Z,68.66
2018-12-24T11:47:09.689Z,66.61
2018-12-24T11:49:35.796Z,67.90
2018-12-24T11:52:01.824Z,67.42
2018-12-24T11:54:27.824Z,64.80
2018-12-24T11:56:53.850Z,66.26
2018-12-24T11:59:19.876Z,65.12
2018-12-24T12:01:45.924Z,65.57
2018-12-24T12:06:57.582Z,65.19
2018-12-24T12:09:23.584Z,65.06
2018-12-24T12:11:49.679Z,66.27
2018-12-24T12:14:15.717Z,64.92
2018-12-24T12:16:41.708Z,66.65
2018-12-24T12:19:07.740Z,65.12
2018-12-24T12:21:33.840Z,63.87
2018-12-24T12:23:59.870Z,63.89
2018-12-24T12:26:25.862Z,63.09
2018-12-24T12:28:51.898Z,65.72
2018-12-24T12:31:18.013Z,64.75
2018-12-24T12:33:44.016Z,61.91
2018-12-24T12:36:10.047Z,64.25
2018-12-24T12:38:36.056Z,64.77
2018-12-24T12:41:02.085Z,62.75
2018-12-24T12:43:28.079Z,63.87
2018-12-24T12:45:54.093Z,63.61
2018-12-24T12:48:21.363Z,61.92
2018-12-24T12:50:48.068Z,62.49
2018-12-24T12:53:14.108Z,61.85
2018-12-24T12:55:40.105Z,61.72
2018-12-24T12:58:06.165Z,62.39
2018-12-24T13:00:32.171Z,63.14
2018-12-24T13:02:58.199Z,62.79
2018-12-24T13:05:24.211Z,64.42
2018-12-24T13:07:50.229Z,63.22
2018-12-24T13:10:16.257Z,64.73
2018-12-24T13:12:42.261Z,63.29
2018-12-24T13:15:08.286Z,62.87
2018-12-24T13:17:34.275Z,63.15
2018-12-24T13:20:00.354Z,63.93
2018-12-24T13:22:26.326Z,63.95
2018-12-24T13:24:52.360Z,63.60
2018-12-24T13:27:18.354Z,63.06
2018-12-24T13:29:44.410Z,62.87
2018-12-24T13:32:24.022Z,64.03
2018-12-24T13:34:50.054Z,62.96
2018-12-24T13:37:16.097Z,63.37
2018-12-24T13:39:42.146Z,64.38
2018-12-24T13:42:08.144Z,63.81
2018-12-24T13:44:34.266Z,64.97
2018-12-24T13:47:00.326Z,63.79
2018-12-24T13:49:26.345Z,64.28
2018-12-24T13:51:52.355Z,64.08
2018-12-24T13:54:25.321Z,62.97
2018-12-24T13:56:51.370Z,63.89
2018-12-24T13:59:17.354Z,63.39
2018-12-24T14:01:43.451Z,63.61
2018-12-24T14:04:09.453Z,63.55
2018-12-24T14:06:35.514Z,64.59
2018-12-24T14:09:01.528Z,63.26
2018-12-24T14:11:27.582Z,63.66
2018-12-24T14:13:53.573Z,64.70
2018-12-24T14:16:19.582Z,62.85
2018-12-24T14:18:45.620Z,63.26
2018-12-24T14:21:11.623Z,63.25
2018-12-24T14:23:37.618Z,62.84
2018-12-24T14:26:03.693Z,63.97
2018-12-24T14:28:29.683Z,63.78
2018-12-24T14:30:55.679Z,63.99
2018-12-24T14:33:21.760Z,63.91
2018-12-24T14:35:47.807Z,63.87
2018-12-24T14:38:13.811Z,63.87
2018-12-24T14:40:39.802Z,63.67
2018-12-24T14:43:05.853Z,63.85
2018-12-24T14:45:31.853Z,64.41
2018-12-24T14:47:57.850Z,65.24
2018-12-24T14:50:23.888Z,64.60
2018-12-24T14:52:49.910Z,64.16
2018-12-24T14:55:15.960Z,64.59
2018-12-24T14:57:41.995Z,64.47
2018-12-24T15:00:08.019Z,64.13
2018-12-24T15:02:34.025Z,64.86
2018-12-24T15:05:00.193Z,64.04
2018-12-24T15:07:26.170Z,63.72
2018-12-24T15:09:52.212Z,63.70
2018-12-24T15:12:18.226Z,63.66
2018-12-24T15:14:44.302Z,63.24
2018-12-24T15:17:10.311Z,63.91
2018-12-24T15:19:36.309Z,63.95
2018-12-24T15:22:02.335Z,63.31
2018-12-24T15:24:28.349Z,62.37
2018-12-24T15:26:54.379Z,63.95
2018-12-24T15:29:20.367Z,63.58
2018-12-24T15:31:46.412Z,63.84
2018-12-24T15:34:12.425Z,64.22
2018-12-24T15:36:38.459Z,63.67
2018-12-24T15:39:46.103Z,64.21
2018-12-24T15:42:12.176Z,64.95
2018-12-24T15:44:38.207Z,64.33
2018-12-24T15:47:04.277Z,65.21
2018-12-24T15:49:30.283Z,65.37
2018-12-24T15:51:56.328Z,64.44
2018-12-24T15:54:22.315Z,65.00
2018-12-24T15:56:48.359Z,65.27
2018-12-24T15:59:14.363Z,65.25
2018-12-24T16:04:12.256Z,65.37
2018-12-24T16:06:38.248Z,64.68
2018-12-24T16:09:45.922Z,65.63
2018-12-24T16:12:11.952Z,65.93
2018-12-24T16:14:37.982Z,64.94
2018-12-24T16:17:03.987Z,65.80
2018-12-24T16:19:30.014Z,66.58
2018-12-24T16:21:56.026Z,66.08
2018-12-24T16:24:22.056Z,66.04
2018-12-24T16:26:48.045Z,66.13
2018-12-24T16:29:14.079Z,67.43
2018-12-24T16:31:40.073Z,67.03
2018-12-24T16:34:06.153Z,67.36
2018-12-24T16:36:32.137Z,67.88
2018-12-24T16:38:58.148Z,67.63
2018-12-24T16:41:24.182Z,66.68
2018-12-24T16:43:50.198Z,66.67
2018-12-24T16:46:16.242Z,66.95
2018-12-24T16:48:42.311Z,66.78
2018-12-24T16:51:08.320Z,66.62
2018-12-24T16:53:40.432Z,66.79
2018-12-24T16:56:02.317Z,65.80
2018-12-24T16:58:28.342Z,66.04
2018-12-24T17:00:54.352Z,66.34
2018-12-24T17:03:20.339Z,66.80
2018-12-24T17:05:46.366Z,67.01
2018-12-24T17:08:12.356Z,66.94
2018-12-24T17:10:38.579Z,66.17
2018-12-24T17:13:04.588Z,66.57
2018-12-24T17:15:30.636Z,67.14
2018-12-24T17:17:56.667Z,67.83
2018-12-24T17:20:22.657Z,67.83
2018-12-24T17:22:48.667Z,68.46
2018-12-24T17:25:14.699Z,67.71
2018-12-24T17:27:40.691Z,68.14
2018-12-24T17:30:06.728Z,68.63
2018-12-24T17:32:32.768Z,68.61
2018-12-24T17:34:58.807Z,69.65
2018-12-24T17:37:24.827Z,70.33
2018-12-24T17:39:51.110Z,70.87
2018-12-24T17:42:18.797Z,71.03
2018-12-24T17:44:44.837Z,70.70
2018-12-24T17:47:16.206Z,70.85
2018-12-24T17:49:38.847Z,70.65
2018-12-24T17:52:04.892Z,71.27
2018-12-24T17:54:30.930Z,71.21
2018-12-24T17:56:56.944Z,70.75
2018-12-24T17:59:22.934Z,70.81
2018-12-24T18:02:08.827Z,71.67
2018-12-24T18:04:34.929Z,71.55
2018-12-24T18:07:00.923Z,73.16
2018-12-24T18:09:26.932Z,73.27
2018-12-24T18:11:53.072Z,73.18
2018-12-24T18:14:19.060Z,73.14
2018-12-24T18:16:45.098Z,73.64
2018-12-24T18:19:11.086Z,73.22
2018-12-24T18:21:37.138Z,73.95
2018-12-24T18:24:03.125Z,73.92
2018-12-24T18:26:29.172Z,73.41
2018-12-24T18:28:55.227Z,73.62
2018-12-24T18:31:21.224Z,74.01
2018-12-24T18:33:47.205Z,75.06
2018-12-24T18:36:13.289Z,74.61
2018-12-24T18:38:39.281Z,74.15
2018-12-24T18:41:05.271Z,74.95
2018-12-24T18:43:31.316Z,74.85
2018-12-24T18:45:57.332Z,74.76
2018-12-24T18:48:23.403Z,75.20
2018-12-24T18:50:49.392Z,74.77
2018-12-24T18:53:15.429Z,74.61
2018-12-24T18:55:41.429Z,74.08
2018-12-24T18:58:07.485Z,74.46
2018-12-24T19:00:33.477Z,73.82
2018-12-24T19:02:59.668Z,73.42
2018-12-24T19:05:25.707Z,73.79
2018-12-24T19:07:51.702Z,73.58
2018-12-24T19:10:17.728Z,73.81
2018-12-24T19:12:43.749Z,73.37
2018-12-24T19:15:29.752Z,74.24
2018-12-24T19:17:55.822Z,73.30
2018-12-24T19:22:53.740Z,74.03
2018-12-24T19:25:19.774Z,74.54
2018-12-24T19:27:45.765Z,74.42
2018-12-24T19:30:11.790Z,74.06
2018-12-24T19:32:37.799Z,74.57
2018-12-24T19:35:03.824Z,73.76
2018-12-24T19:37:29.843Z,73.81
2018-12-24T19:39:55.852Z,73.71
2018-12-24T19:42:21.903Z,73.53
2018-12-24T19:44:47.901Z,73.31
2018-12-24T19:47:13.974Z,73.45
2018-12-24T19:49:39.984Z,74.41
2018-12-24T19:52:06.025Z,73.89
2018-12-24T19:54:32.018Z,74.45
2018-12-24T19:56:58.042Z,74.41
2018-12-24T19:59:24.062Z,73.70
2018-12-24T20:01:50.110Z,74.30
2018-12-24T20:04:16.140Z,73.52
2018-12-24T20:06:42.139Z,73.11
2018-12-24T20:09:08.173Z,73.87
2018-12-24T20:11:34.189Z,73.80
2018-12-24T20:14:00.229Z,73.91
2018-12-24T20:16:26.219Z,73.74
2018-12-24T20:18:52.257Z,73.24
2018-12-24T20:21:18.285Z,73.69
2018-12-24T20:23:44.349Z,73.18
2018-12-24T20:26:10.380Z,73.51
2018-12-24T20:28:36.395Z,74.22
2018-12-24T20:31:02.436Z,74.96
2018-12-24T20:33:28.421Z,73.80
2018-12-24T20:35:54.436Z,74.63
2018-12-24T20:38:20.469Z,74.62
2018-12-24T20:40:46.487Z,74.17
2018-12-24T20:43:12.478Z,74.27
2018-12-24T20:45:38.527Z,74.71
2018-12-24T20:48:17.825Z,74.88
2018-12-24T20:50:43.863Z,74.09
2018-12-24T20:53:09.901Z,74.42
2018-12-24T20:55:35.894Z,74.09
2018-12-24T20:58:02.022Z,74.71
2018-12-24T21:00:28.040Z,74.51
2018-12-24T21:02:54.173Z,73.81
2018-12-24T21:05:20.163Z,74.44
2018-12-24T21:07:46.189Z,74.14
2018-12-24T21:10:12.181Z,73.77
2018-12-24T21:12:38.207Z,73.94
2018-12-24T21:15:24.220Z,74.08
2018-12-24T21:17:50.308Z,73.45
2018-12-24T21:20:16.308Z,73.50
2018-12-24T21:22:42.316Z,73.67
2018-12-24T21:25:08.355Z,73.33
2018-12-24T21:27:34.357Z,72.64
2018-12-24T21:30:00.414Z,72.79
2018-12-24T21:32:26.405Z,72.66
2018-12-24T21:37:24.244Z,72.08
2018-12-24T21:39:50.297Z,72.43
2018-12-24T21:42:36.207Z,72.40
2018-12-24T21:45:02.280Z,71.79
2018-12-24T21:47:28.269Z,72.95
2018-12-24T21:49:54.342Z,72.87
2018-12-24T21:52:20.343Z,72.60
2018-12-24T21:54:46.386Z,72.53
2018-12-24T21:57:12.430Z,72.21
2018-12-24T21:59:38.449Z,71.59
2018-12-24T22:02:04.476Z,71.59
2018-12-24T22:04:30.459Z,72.23
2018-12-24T22:06:56.494Z,71.59
2018-12-24T22:09:22.522Z,71.70
2018-12-24T22:11:48.517Z,71.71
2018-12-24T22:14:14.556Z,71.36
2018-12-24T22:16:40.548Z,71.59
2018-12-24T22:19:06.586Z,70.83
2018-12-24T22:21:32.581Z,71.14
2018-12-24T22:23:58.633Z,70.69
2018-12-24T22:26:24.642Z,71.22
2018-12-24T22:28:50.628Z,70.80
2018-12-24T22:31:16.683Z,70.42
2018-12-24T22:33:42.663Z,70.83
2018-12-24T22:36:08.710Z,70.26
2018-12-24T22:38:34.746Z,70.20
2018-12-24T22:41:00.772Z,69.96
2018-12-24T22:43:26.802Z,69.82
2018-12-24T22:45:52.883Z,69.89
2018-12-24T22:48:18.882Z,69.56
2018-12-24T22:50:44.878Z,69.15
2018-12-24T22:53:10.917Z,69.55
2018-12-24T22:55:36.938Z,69.06
2018-12-24T22:58:02.963Z,69.16
2018-12-24T23:03:16.603Z,69.66
2018-12-24T23:05:43.917Z,69.86
2018-12-24T23:08:10.596Z,69.30
2018-12-24T23:10:36.598Z,69.41
2018-12-24T23:13:02.601Z,70.10
2018-12-24T23:15:28.630Z,70.42
2018-12-24T23:17:54.625Z,70.27
2018-12-24T23:22:52.641Z,70.80
2018-12-24T23:25:18.664Z,71.81
2018-12-24T23:28:04.556Z,71.36
2018-12-24T23:30:30.637Z,71.21
2018-12-24T23:32:56.647Z,71.80
2018-12-24T23:35:22.647Z,71.31
2018-12-24T23:37:48.682Z,70.80
2018-12-24T23:40:14.749Z,70.75
2018-12-24T23:42:40.790Z,70.97
2018-12-24T23:45:06.800Z,70.73
2018-12-24T23:47:32.829Z,70.43
2018-12-24T23:49:58.875Z,70.96
2018-12-24T23:52:24.882Z,70.83
2018-12-24T23:54:50.921Z,70.26
2018-12-24T23:57:16.929Z,69.92
2018-12-24T23:59:42.966Z,70.18
